sensor_id;sensor_type;location;lat;lon;timestamp;P1;durP1;ratioP1;P2;durP2;ratioP2
17079;SDS011;8655;57.106;-2.088;2024-03-06T00:01:30;5.53;;;3.00;;
17079;SDS011;8655;57.106;-2.088;2024-03-06T00:03:56;7.07;;;3.03;;
17079;SDS011;8655;57.106;-2.088;2024-03-06T00:06:22;5.97;;;2.80;;
17079;SDS011;8655;57.106;-2.088;2024-03-06T00:08:49;5.67;;;2.90;;
17079;SDS011;8655;57.106;-2.088;2024-03-06T00:11:15;5.13;;;2.80;;
17079;SDS011;8655;57.106;-2.088;2024-03-06T00:13:41;5.00;;;2.77;;
17079;SDS011;8655;57.106;-2.088;2024-03-06T00:16:07;5.50;;;3.03;;
17079;SDS011;8655;57.106;-2.088;2024-03-06T00:18:33;5.00;;;2.67;;
17079;SDS011;8655;57.106;-2.088;2024-03-06T00:20:58;5.30;;;2.90;;
17079;SDS011;8655;57.106;-2.088;2024-03-06T00:23:24;5.27;;;2.80;;
17079;SDS011;8655;57.106;-2.088;2024-03-06T00:25:51;4.70;;;2.90;;
17079;SDS011;8655;57.106;-2.088;2024-03-06T00:28:16;6.33;;;3.20;;
17079;SDS011;8655;57.106;-2.088;2024-03-06T00:30:42;5.67;;;2.53;;
17079;SDS011;8655;57.106;-2.088;2024-03-06T00:33:08;4.27;;;2.83;;
17079;SDS011;8655;57.106;-2.088;2024-03-06T00:35:33;5.25;;;3.15;;
17079;SDS011;8655;57.106;-2.088;2024-03-06T00:37:59;5.43;;;2.70;;
17079;SDS011;8655;57.106;-2.088;2024-03-06T00:40:27;4.90;;;2.80;;
17079;SDS011;8655;57.106;-2.088;2024-03-06T00:42:56;4.73;;;2.97;;
17079;SDS011;8655;57.106;-2.088;2024-03-06T00:45:22;5.77;;;3.10;;
17079;SDS011;8655;57.106;-2.088;2024-03-06T00:47:48;5.43;;;3.07;;
17079;SDS011;8655;57.106;-2.088;2024-03-06T00:50:13;5.23;;;2.80;;
17079;SDS011;8655;57.106;-2.088;2024-03-06T00:52:41;5.43;;;2.97;;
17079;SDS011;8655;57.106;-2.088;2024-03-06T00:55:08;6.00;;;2.90;;
17079;SDS011;8655;57.106;-2.088;2024-03-06T00:57:35;5.40;;;3.07;;
17079;SDS011;8655;57.106;-2.088;2024-03-06T01:00:01;5.23;;;2.70;;
17079;SDS011;8655;57.106;-2.088;2024-03-06T01:02:36;6.83;;;3.20;;
17079;SDS011;8655;57.106;-2.088;2024-03-06T01:05:05;5.70;;;3.30;;
17079;SDS011;8655;57.106;-2.088;2024-03-06T01:07:34;6.53;;;3.30;;
17079;SDS011;8655;57.106;-2.088;2024-03-06T01:10:02;6.10;;;3.00;;
17079;SDS011;8655;57.106;-2.088;2024-03-06T01:12:31;7.43;;;3.93;;
17079;SDS011;8655;57.106;-2.088;2024-03-06T01:14:57;6.67;;;3.10;;
17079;SDS011;8655;57.106;-2.088;2024-03-06T01:17:23;7.37;;;3.40;;
17079;SDS011;8655;57.106;-2.088;2024-03-06T01:19:49;7.27;;;3.40;;
17079;SDS011;8655;57.106;-2.088;2024-03-06T01:22:15;6.47;;;3.20;;
17079;SDS011;8655;57.106;-2.088;2024-03-06T01:24:41;6.73;;;3.20;;
17079;SDS011;8655;57.106;-2.088;2024-03-06T01:27:07;9.03;;;3.70;;
17079;SDS011;8655;57.106;-2.088;2024-03-06T01:29:33;7.40;;;3.40;;
17079;SDS011;8655;57.106;-2.088;2024-03-06T01:31:58;7.13;;;3.23;;
17079;SDS011;8655;57.106;-2.088;2024-03-06T01:34:24;6.33;;;3.40;;
17079;SDS011;8655;57.106;-2.088;2024-03-06T01:36:51;6.27;;;2.97;;
17079;SDS011;8655;57.106;-2.088;2024-03-06T01:39:17;7.53;;;3.40;;
17079;SDS011;8655;57.106;-2.088;2024-03-06T01:41:46;6.13;;;3.30;;
17079;SDS011;8655;57.106;-2.088;2024-03-06T01:44:16;4.80;;;3.03;;
17079;SDS011;8655;57.106;-2.088;2024-03-06T01:46:43;5.07;;;2.90;;
17079;SDS011;8655;57.106;-2.088;2024-03-06T01:49:09;7.87;;;3.20;;
17079;SDS011;8655;57.106;-2.088;2024-03-06T01:51:40;6.80;;;3.17;;
17079;SDS011;8655;57.106;-2.088;2024-03-06T01:54:07;6.33;;;3.00;;
17079;SDS011;8655;57.106;-2.088;2024-03-06T01:56:35;5.87;;;3.40;;
17079;SDS011;8655;57.106;-2.088;2024-03-06T01:59:03;4.93;;;3.10;;
17079;SDS011;8655;57.106;-2.088;2024-03-06T02:01:29;7.77;;;3.40;;
17079;SDS011;8655;57.106;-2.088;2024-03-06T02:03:57;7.40;;;3.27;;
17079;SDS011;8655;57.106;-2.088;2024-03-06T02:06:23;6.87;;;3.17;;
17079;SDS011;8655;57.106;-2.088;2024-03-06T02:08:49;6.03;;;2.93;;
17079;SDS011;8655;57.106;-2.088;2024-03-06T02:11:16;8.53;;;3.33;;
17079;SDS011;8655;57.106;-2.088;2024-03-06T02:13:42;7.07;;;2.90;;
17079;SDS011;8655;57.106;-2.088;2024-03-06T02:16:09;7.70;;;3.57;;
17079;SDS011;8655;57.106;-2.088;2024-03-06T02:18:35;7.33;;;3.30;;
17079;SDS011;8655;57.106;-2.088;2024-03-06T02:21:02;7.20;;;3.07;;
17079;SDS011;8655;57.106;-2.088;2024-03-06T02:23:30;6.87;;;3.27;;
17079;SDS011;8655;57.106;-2.088;2024-03-06T02:25:56;7.30;;;3.73;;
17079;SDS011;8655;57.106;-2.088;2024-03-06T02:28:21;8.73;;;3.17;;
17079;SDS011;8655;57.106;-2.088;2024-03-06T02:30:50;6.13;;;2.80;;
17079;SDS011;8655;57.106;-2.088;2024-03-06T02:33:16;5.43;;;3.13;;
17079;SDS011;8655;57.106;-2.088;2024-03-06T02:35:43;7.53;;;3.70;;
17079;SDS011;8655;57.106;-2.088;2024-03-06T02:38:11;8.20;;;3.40;;
17079;SDS011;8655;57.106;-2.088;2024-03-06T02:40:36;7.33;;;3.30;;
17079;SDS011;8655;57.106;-2.088;2024-03-06T02:43:02;6.20;;;3.07;;
17079;SDS011;8655;57.106;-2.088;2024-03-06T02:45:28;7.83;;;3.50;;
17079;SDS011;8655;57.106;-2.088;2024-03-06T02:47:53;6.53;;;3.10;;
17079;SDS011;8655;57.106;-2.088;2024-03-06T02:50:19;6.80;;;3.33;;
17079;SDS011;8655;57.106;-2.088;2024-03-06T02:52:46;6.47;;;3.57;;
17079;SDS011;8655;57.106;-2.088;2024-03-06T02:55:12;6.37;;;3.17;;
17079;SDS011;8655;57.106;-2.088;2024-03-06T02:57:37;8.50;;;3.37;;
17079;SDS011;8655;57.106;-2.088;2024-03-06T03:00:03;6.80;;;3.13;;
17079;SDS011;8655;57.106;-2.088;2024-03-06T03:02:29;10.17;;;4.13;;
17079;SDS011;8655;57.106;-2.088;2024-03-06T03:04:56;10.00;;;3.73;;
17079;SDS011;8655;57.106;-2.088;2024-03-06T03:07:22;6.20;;;3.70;;
17079;SDS011;8655;57.106;-2.088;2024-03-06T03:09:48;7.60;;;3.77;;
17079;SDS011;8655;57.106;-2.088;2024-03-06T03:12:14;6.83;;;3.50;;
17079;SDS011;8655;57.106;-2.088;2024-03-06T03:14:40;6.90;;;3.30;;
17079;SDS011;8655;57.106;-2.088;2024-03-06T03:17:06;5.27;;;3.20;;
17079;SDS011;8655;57.106;-2.088;2024-03-06T03:19:32;8.30;;;3.70;;
17079;SDS011;8655;57.106;-2.088;2024-03-06T03:21:58;5.27;;;2.93;;
17079;SDS011;8655;57.106;-2.088;2024-03-06T03:24:24;6.50;;;3.50;;
17079;SDS011;8655;57.106;-2.088;2024-03-06T03:26:53;6.43;;;3.30;;
17079;SDS011;8655;57.106;-2.088;2024-03-06T03:29:18;9.33;;;3.70;;
17079;SDS011;8655;57.106;-2.088;2024-03-06T03:31:45;7.33;;;3.40;;
17079;SDS011;8655;57.106;-2.088;2024-03-06T03:34:11;7.30;;;3.70;;
17079;SDS011;8655;57.106;-2.088;2024-03-06T03:36:43;6.40;;;3.53;;
17079;SDS011;8655;57.106;-2.088;2024-03-06T03:39:10;8.53;;;3.43;;
17079;SDS011;8655;57.106;-2.088;2024-03-06T03:41:45;5.97;;;3.47;;
17079;SDS011;8655;57.106;-2.088;2024-03-06T03:44:12;9.23;;;3.83;;
17079;SDS011;8655;57.106;-2.088;2024-03-06T03:46:42;7.40;;;3.47;;
17079;SDS011;8655;57.106;-2.088;2024-03-06T03:49:08;5.90;;;3.20;;
17079;SDS011;8655;57.106;-2.088;2024-03-06T03:51:37;8.93;;;3.43;;
17079;SDS011;8655;57.106;-2.088;2024-03-06T03:54:04;5.70;;;3.60;;
17079;SDS011;8655;57.106;-2.088;2024-03-06T03:56:30;6.90;;;3.23;;
17079;SDS011;8655;57.106;-2.088;2024-03-06T03:58:56;5.20;;;3.03;;
17079;SDS011;8655;57.106;-2.088;2024-03-06T04:01:23;6.33;;;3.40;;
17079;SDS011;8655;57.106;-2.088;2024-03-06T04:03:49;8.23;;;3.43;;
17079;SDS011;8655;57.106;-2.088;2024-03-06T04:06:15;6.50;;;3.83;;
17079;SDS011;8655;57.106;-2.088;2024-03-06T04:08:42;6.67;;;3.30;;
17079;SDS011;8655;57.106;-2.088;2024-03-06T04:11:07;6.07;;;3.57;;
17079;SDS011;8655;57.106;-2.088;2024-03-06T04:13:36;6.90;;;3.40;;
17079;SDS011;8655;57.106;-2.088;2024-03-06T04:16:03;7.77;;;3.80;;
17079;SDS011;8655;57.106;-2.088;2024-03-06T04:18:30;7.77;;;3.83;;
17079;SDS011;8655;57.106;-2.088;2024-03-06T04:21:06;8.13;;;4.00;;
17079;SDS011;8655;57.106;-2.088;2024-03-06T04:23:32;7.13;;;3.73;;
17079;SDS011;8655;57.106;-2.088;2024-03-06T04:25:59;7.73;;;3.37;;
17079;SDS011;8655;57.106;-2.088;2024-03-06T04:28:25;6.97;;;3.80;;
17079;SDS011;8655;57.106;-2.088;2024-03-06T04:30:50;7.77;;;3.67;;
17079;SDS011;8655;57.106;-2.088;2024-03-06T04:33:16;6.03;;;3.40;;
17079;SDS011;8655;57.106;-2.088;2024-03-06T04:35:42;5.27;;;3.37;;
17079;SDS011;8655;57.106;-2.088;2024-03-06T04:38:07;8.57;;;4.27;;
17079;SDS011;8655;57.106;-2.088;2024-03-06T04:40:33;5.93;;;3.50;;
17079;SDS011;8655;57.106;-2.088;2024-03-06T04:42:59;6.57;;;3.90;;
17079;SDS011;8655;57.106;-2.088;2024-03-06T04:45:26;8.73;;;3.83;;
17079;SDS011;8655;57.106;-2.088;2024-03-06T04:47:52;7.07;;;3.70;;
17079;SDS011;8655;57.106;-2.088;2024-03-06T04:50:17;8.87;;;4.10;;
17079;SDS011;8655;57.106;-2.088;2024-03-06T04:52:43;7.23;;;3.87;;
17079;SDS011;8655;57.106;-2.088;2024-03-06T04:55:12;6.87;;;3.40;;
17079;SDS011;8655;57.106;-2.088;2024-03-06T04:57:41;6.43;;;3.47;;
17079;SDS011;8655;57.106;-2.088;2024-03-06T05:00:09;7.70;;;3.70;;
17079;SDS011;8655;57.106;-2.088;2024-03-06T05:02:35;9.17;;;3.90;;
17079;SDS011;8655;57.106;-2.088;2024-03-06T05:05:02;8.23;;;4.07;;
17079;SDS011;8655;57.106;-2.088;2024-03-06T05:07:29;7.40;;;3.50;;
17079;SDS011;8655;57.106;-2.088;2024-03-06T05:09:55;7.37;;;3.43;;
17079;SDS011;8655;57.106;-2.088;2024-03-06T05:12:22;8.40;;;3.70;;
17079;SDS011;8655;57.106;-2.088;2024-03-06T05:14:48;8.07;;;3.73;;
17079;SDS011;8655;57.106;-2.088;2024-03-06T05:17:14;8.20;;;3.90;;
17079;SDS011;8655;57.106;-2.088;2024-03-06T05:19:40;5.57;;;3.47;;
17079;SDS011;8655;57.106;-2.088;2024-03-06T05:22:06;8.57;;;3.60;;
17079;SDS011;8655;57.106;-2.088;2024-03-06T05:24:31;7.27;;;4.00;;
17079;SDS011;8655;57.106;-2.088;2024-03-06T05:26:57;6.57;;;3.83;;
17079;SDS011;8655;57.106;-2.088;2024-03-06T05:29:23;7.37;;;3.63;;
17079;SDS011;8655;57.106;-2.088;2024-03-06T05:31:48;5.57;;;3.50;;
17079;SDS011;8655;57.106;-2.088;2024-03-06T05:34:14;9.20;;;4.30;;
17079;SDS011;8655;57.106;-2.088;2024-03-06T05:36:40;7.20;;;3.73;;
17079;SDS011;8655;57.106;-2.088;2024-03-06T05:39:05;7.63;;;4.07;;
17079;SDS011;8655;57.106;-2.088;2024-03-06T05:41:37;6.63;;;4.03;;
17079;SDS011;8655;57.106;-2.088;2024-03-06T05:44:07;7.57;;;3.67;;
17079;SDS011;8655;57.106;-2.088;2024-03-06T05:46:33;8.80;;;4.33;;
17079;SDS011;8655;57.106;-2.088;2024-03-06T05:48:58;9.30;;;3.83;;
17079;SDS011;8655;57.106;-2.088;2024-03-06T05:51:24;7.03;;;3.80;;
17079;SDS011;8655;57.106;-2.088;2024-03-06T05:53:50;8.00;;;3.90;;
17079;SDS011;8655;57.106;-2.088;2024-03-06T05:56:19;7.00;;;3.77;;
17079;SDS011;8655;57.106;-2.088;2024-03-06T05:58:45;7.67;;;3.97;;
17079;SDS011;8655;57.106;-2.088;2024-03-06T06:01:17;8.10;;;4.03;;
17079;SDS011;8655;57.106;-2.088;2024-03-06T06:03:47;7.93;;;3.60;;
17079;SDS011;8655;57.106;-2.088;2024-03-06T06:06:16;9.23;;;4.10;;
17079;SDS011;8655;57.106;-2.088;2024-03-06T06:08:44;8.13;;;3.90;;
17079;SDS011;8655;57.106;-2.088;2024-03-06T06:11:10;8.33;;;4.37;;
17079;SDS011;8655;57.106;-2.088;2024-03-06T06:13:36;8.17;;;4.30;;
17079;SDS011;8655;57.106;-2.088;2024-03-06T06:16:02;7.90;;;4.13;;
17079;SDS011;8655;57.106;-2.088;2024-03-06T06:18:28;7.37;;;3.80;;
17079;SDS011;8655;57.106;-2.088;2024-03-06T06:20:53;7.03;;;4.07;;
17079;SDS011;8655;57.106;-2.088;2024-03-06T06:23:19;7.70;;;4.07;;
17079;SDS011;8655;57.106;-2.088;2024-03-06T06:25:45;8.87;;;3.97;;
17079;SDS011;8655;57.106;-2.088;2024-03-06T06:28:11;6.70;;;3.67;;
17079;SDS011;8655;57.106;-2.088;2024-03-06T06:30:36;7.10;;;4.03;;
17079;SDS011;8655;57.106;-2.088;2024-03-06T06:33:03;6.97;;;3.60;;
17079;SDS011;8655;57.106;-2.088;2024-03-06T06:35:29;11.20;;;4.23;;
17079;SDS011;8655;57.106;-2.088;2024-03-06T06:37:55;8.63;;;3.83;;
17079;SDS011;8655;57.106;-2.088;2024-03-06T06:40:21;8.10;;;3.87;;
17079;SDS011;8655;57.106;-2.088;2024-03-06T06:42:47;8.77;;;4.07;;
17079;SDS011;8655;57.106;-2.088;2024-03-06T06:45:17;7.90;;;4.20;;
17079;SDS011;8655;57.106;-2.088;2024-03-06T06:47:47;6.07;;;3.73;;
17079;SDS011;8655;57.106;-2.088;2024-03-06T06:50:13;8.83;;;4.50;;
17079;SDS011;8655;57.106;-2.088;2024-03-06T06:52:39;9.47;;;4.37;;
17079;SDS011;8655;57.106;-2.088;2024-03-06T06:55:05;6.70;;;4.10;;
17079;SDS011;8655;57.106;-2.088;2024-03-06T06:57:31;8.37;;;3.97;;
17079;SDS011;8655;57.106;-2.088;2024-03-06T06:59:58;7.33;;;4.07;;
17079;SDS011;8655;57.106;-2.088;2024-03-06T07:02:25;10.37;;;3.77;;
17079;SDS011;8655;57.106;-2.088;2024-03-06T07:04:51;8.73;;;4.07;;
17079;SDS011;8655;57.106;-2.088;2024-03-06T07:07:17;8.20;;;3.83;;
17079;SDS011;8655;57.106;-2.088;2024-03-06T07:09:43;8.47;;;3.83;;
17079;SDS011;8655;57.106;-2.088;2024-03-06T07:12:09;8.73;;;4.00;;
17079;SDS011;8655;57.106;-2.088;2024-03-06T07:14:34;10.53;;;4.27;;
17079;SDS011;8655;57.106;-2.088;2024-03-06T07:17:00;7.33;;;3.80;;
17079;SDS011;8655;57.106;-2.088;2024-03-06T07:19:26;8.27;;;3.83;;
17079;SDS011;8655;57.106;-2.088;2024-03-06T07:21:52;8.23;;;3.70;;
17079;SDS011;8655;57.106;-2.088;2024-03-06T07:24:18;9.10;;;4.10;;
17079;SDS011;8655;57.106;-2.088;2024-03-06T07:26:44;7.77;;;3.77;;
17079;SDS011;8655;57.106;-2.088;2024-03-06T07:29:10;8.37;;;4.13;;
17079;SDS011;8655;57.106;-2.088;2024-03-06T07:31:42;8.27;;;3.97;;
17079;SDS011;8655;57.106;-2.088;2024-03-06T07:34:09;9.27;;;4.33;;
17079;SDS011;8655;57.106;-2.088;2024-03-06T07:36:35;7.27;;;3.87;;
17079;SDS011;8655;57.106;-2.088;2024-03-06T07:39:01;8.60;;;3.90;;
17079;SDS011;8655;57.106;-2.088;2024-03-06T07:41:28;8.23;;;3.67;;
17079;SDS011;8655;57.106;-2.088;2024-03-06T07:43:53;9.30;;;4.50;;
17079;SDS011;8655;57.106;-2.088;2024-03-06T07:46:19;10.43;;;4.40;;
17079;SDS011;8655;57.106;-2.088;2024-03-06T07:48:45;5.97;;;3.30;;
17079;SDS011;8655;57.106;-2.088;2024-03-06T07:51:10;5.27;;;3.10;;
17079;SDS011;8655;57.106;-2.088;2024-03-06T07:53:36;6.83;;;3.50;;
17079;SDS011;8655;57.106;-2.088;2024-03-06T07:56:05;9.87;;;3.87;;
17079;SDS011;8655;57.106;-2.088;2024-03-06T07:58:30;9.10;;;4.03;;
17079;SDS011;8655;57.106;-2.088;2024-03-06T08:00:56;10.77;;;4.00;;
17079;SDS011;8655;57.106;-2.088;2024-03-06T08:03:23;8.73;;;3.70;;
17079;SDS011;8655;57.106;-2.088;2024-03-06T08:05:52;8.03;;;3.77;;
17079;SDS011;8655;57.106;-2.088;2024-03-06T08:08:18;6.50;;;3.30;;
17079;SDS011;8655;57.106;-2.088;2024-03-06T08:10:44;8.13;;;3.70;;
17079;SDS011;8655;57.106;-2.088;2024-03-06T08:13:10;8.33;;;3.70;;
17079;SDS011;8655;57.106;-2.088;2024-03-06T08:15:36;6.43;;;3.43;;
17079;SDS011;8655;57.106;-2.088;2024-03-06T08:18:02;8.40;;;4.10;;
17079;SDS011;8655;57.106;-2.088;2024-03-06T08:20:30;8.43;;;3.67;;
17079;SDS011;8655;57.106;-2.088;2024-03-06T08:22:56;7.73;;;3.37;;
17079;SDS011;8655;57.106;-2.088;2024-03-06T08:25:22;6.20;;;3.43;;
17079;SDS011;8655;57.106;-2.088;2024-03-06T08:27:48;8.23;;;3.87;;
17079;SDS011;8655;57.106;-2.088;2024-03-06T08:30:13;7.10;;;3.80;;
17079;SDS011;8655;57.106;-2.088;2024-03-06T08:32:39;8.47;;;3.73;;
17079;SDS011;8655;57.106;-2.088;2024-03-06T08:35:06;9.87;;;4.20;;
17079;SDS011;8655;57.106;-2.088;2024-03-06T08:37:43;6.40;;;3.30;;
17079;SDS011;8655;57.106;-2.088;2024-03-06T08:40:09;9.23;;;3.87;;
17079;SDS011;8655;57.106;-2.088;2024-03-06T08:42:42;7.10;;;3.92;;
17079;SDS011;8655;57.106;-2.088;2024-03-06T08:45:12;9.25;;;3.83;;
17079;SDS011;8655;57.106;-2.088;2024-03-06T08:47:38;6.20;;;3.43;;
17079;SDS011;8655;57.106;-2.088;2024-03-06T08:50:03;5.87;;;3.57;;
17079;SDS011;8655;57.106;-2.088;2024-03-06T08:52:29;6.77;;;3.30;;
17079;SDS011;8655;57.106;-2.088;2024-03-06T08:54:59;8.10;;;3.80;;
17079;SDS011;8655;57.106;-2.088;2024-03-06T08:57:25;6.72;;;3.15;;
17079;SDS011;8655;57.106;-2.088;2024-03-06T08:59:53;7.47;;;3.63;;
17079;SDS011;8655;57.106;-2.088;2024-03-06T09:02:19;5.90;;;2.85;;
17079;SDS011;8655;57.106;-2.088;2024-03-06T09:04:45;7.50;;;3.58;;
17079;SDS011;8655;57.106;-2.088;2024-03-06T09:07:11;6.82;;;3.33;;
17079;SDS011;8655;57.106;-2.088;2024-03-06T09:09:38;7.05;;;3.38;;
17079;SDS011;8655;57.106;-2.088;2024-03-06T09:12:07;6.70;;;3.40;;
17079;SDS011;8655;57.106;-2.088;2024-03-06T09:14:37;6.80;;;3.13;;
17079;SDS011;8655;57.106;-2.088;2024-03-06T09:17:03;7.47;;;3.42;;
17079;SDS011;8655;57.106;-2.088;2024-03-06T09:19:30;7.47;;;3.28;;
17079;SDS011;8655;57.106;-2.088;2024-03-06T09:21:56;6.72;;;2.95;;
17079;SDS011;8655;57.106;-2.088;2024-03-06T09:24:22;6.35;;;3.58;;
17079;SDS011;8655;57.106;-2.088;2024-03-06T09:26:50;8.27;;;3.33;;
17079;SDS011;8655;57.106;-2.088;2024-03-06T09:29:16;7.88;;;3.50;;
17079;SDS011;8655;57.106;-2.088;2024-03-06T09:31:42;6.75;;;3.05;;
17079;SDS011;8655;57.106;-2.088;2024-03-06T09:34:08;7.82;;;3.53;;
17079;SDS011;8655;57.106;-2.088;2024-03-06T09:36:40;7.43;;;3.45;;
17079;SDS011;8655;57.106;-2.088;2024-03-06T09:39:10;7.07;;;3.33;;
17079;SDS011;8655;57.106;-2.088;2024-03-06T09:41:36;7.20;;;3.50;;
17079;SDS011;8655;57.106;-2.088;2024-03-06T09:44:06;9.18;;;3.05;;
17079;SDS011;8655;57.106;-2.088;2024-03-06T09:46:32;7.15;;;3.20;;
17079;SDS011;8655;57.106;-2.088;2024-03-06T09:48:59;5.85;;;3.10;;
17079;SDS011;8655;57.106;-2.088;2024-03-06T09:51:26;5.43;;;3.28;;
17079;SDS011;8655;57.106;-2.088;2024-03-06T09:53:52;4.93;;;2.85;;
17079;SDS011;8655;57.106;-2.088;2024-03-06T09:56:19;6.22;;;3.15;;
17079;SDS011;8655;57.106;-2.088;2024-03-06T09:58:45;6.45;;;3.28;;
17079;SDS011;8655;57.106;-2.088;2024-03-06T10:01:12;8.13;;;3.13;;
17079;SDS011;8655;57.106;-2.088;2024-03-06T10:03:39;6.55;;;3.08;;
17079;SDS011;8655;57.106;-2.088;2024-03-06T10:06:08;3.80;;;2.87;;
17079;SDS011;8655;57.106;-2.088;2024-03-06T10:08:34;5.85;;;3.05;;
17079;SDS011;8655;57.106;-2.088;2024-03-06T10:11:00;4.97;;;3.00;;
17079;SDS011;8655;57.106;-2.088;2024-03-06T10:13:26;6.70;;;3.22;;
17079;SDS011;8655;57.106;-2.088;2024-03-06T10:15:59;6.38;;;3.00;;
17079;SDS011;8655;57.106;-2.088;2024-03-06T10:18:26;6.70;;;3.40;;
17079;SDS011;8655;57.106;-2.088;2024-03-06T10:20:53;4.70;;;2.97;;
17079;SDS011;8655;57.106;-2.088;2024-03-06T10:23:19;5.57;;;2.97;;
17079;SDS011;8655;57.106;-2.088;2024-03-06T10:25:44;5.32;;;2.90;;
17079;SDS011;8655;57.106;-2.088;2024-03-06T10:28:16;6.70;;;3.53;;
17079;SDS011;8655;57.106;-2.088;2024-03-06T10:30:43;6.15;;;2.78;;
17079;SDS011;8655;57.106;-2.088;2024-03-06T10:33:11;6.07;;;3.22;;
17079;SDS011;8655;57.106;-2.088;2024-03-06T10:35:37;5.60;;;3.28;;
17079;SDS011;8655;57.106;-2.088;2024-03-06T10:38:05;6.03;;;2.90;;
17079;SDS011;8655;57.106;-2.088;2024-03-06T10:40:36;5.60;;;2.80;;
17079;SDS011;8655;57.106;-2.088;2024-03-06T10:43:04;4.72;;;2.95;;
17079;SDS011;8655;57.106;-2.088;2024-03-06T10:45:46;6.05;;;3.22;;
17079;SDS011;8655;57.106;-2.088;2024-03-06T10:48:17;6.55;;;3.15;;
17079;SDS011;8655;57.106;-2.088;2024-03-06T10:50:44;7.23;;;3.30;;
17079;SDS011;8655;57.106;-2.088;2024-03-06T10:53:14;5.35;;;3.00;;
17079;SDS011;8655;57.106;-2.088;2024-03-06T10:55:44;4.55;;;2.80;;
17079;SDS011;8655;57.106;-2.088;2024-03-06T10:58:10;5.38;;;3.10;;
17079;SDS011;8655;57.106;-2.088;2024-03-06T11:00:37;5.55;;;3.35;;
17079;SDS011;8655;57.106;-2.088;2024-03-06T11:03:08;5.37;;;2.90;;
17079;SDS011;8655;57.106;-2.088;2024-03-06T11:05:40;6.43;;;3.10;;
17079;SDS011;8655;57.106;-2.088;2024-03-06T11:08:07;3.95;;;2.60;;
17079;SDS011;8655;57.106;-2.088;2024-03-06T11:10:37;4.38;;;2.63;;
17079;SDS011;8655;57.106;-2.088;2024-03-06T11:13:08;4.32;;;2.60;;
17079;SDS011;8655;57.106;-2.088;2024-03-06T11:15:57;5.82;;;2.67;;
17079;SDS011;8655;57.106;-2.088;2024-03-06T11:23:27;5.50;;;3.03;;
17079;SDS011;8655;57.106;-2.088;2024-03-06T11:28:28;4.15;;;2.47;;
17079;SDS011;8655;57.106;-2.088;2024-03-06T11:30:58;5.90;;;3.17;;
17079;SDS011;8655;57.106;-2.088;2024-03-06T11:33:34;5.57;;;3.10;;
17079;SDS011;8655;57.106;-2.088;2024-03-06T11:36:21;5.83;;;3.10;;
17079;SDS011;8655;57.106;-2.088;2024-03-06T11:38:50;5.23;;;2.70;;
17079;SDS011;8655;57.106;-2.088;2024-03-06T11:41:24;5.63;;;2.90;;
17079;SDS011;8655;57.106;-2.088;2024-03-06T11:43:51;4.77;;;2.77;;
17079;SDS011;8655;57.106;-2.088;2024-03-06T11:46:21;4.73;;;2.80;;
17079;SDS011;8655;57.106;-2.088;2024-03-06T11:48:51;4.82;;;2.38;;
17079;SDS011;8655;57.106;-2.088;2024-03-06T11:51:21;5.83;;;2.83;;
17079;SDS011;8655;57.106;-2.088;2024-03-06T11:53:51;6.37;;;3.17;;
17079;SDS011;8655;57.106;-2.088;2024-03-06T11:56:18;6.07;;;3.00;;
17079;SDS011;8655;57.106;-2.088;2024-03-06T11:58:45;6.40;;;2.78;;
17079;SDS011;8655;57.106;-2.088;2024-03-06T12:01:11;5.50;;;2.85;;
17079;SDS011;8655;57.106;-2.088;2024-03-06T12:03:37;6.47;;;3.40;;
17079;SDS011;8655;57.106;-2.088;2024-03-06T12:06:02;5.37;;;2.80;;
17079;SDS011;8655;57.106;-2.088;2024-03-06T12:08:28;5.80;;;2.90;;
17079;SDS011;8655;57.106;-2.088;2024-03-06T12:10:55;6.40;;;2.75;;
17079;SDS011;8655;57.106;-2.088;2024-03-06T12:13:23;5.60;;;2.97;;
17079;SDS011;8655;57.106;-2.088;2024-03-06T12:15:49;4.93;;;2.70;;
17079;SDS011;8655;57.106;-2.088;2024-03-06T12:18:17;5.00;;;2.90;;
17079;SDS011;8655;57.106;-2.088;2024-03-06T12:20:43;4.32;;;2.60;;
17079;SDS011;8655;57.106;-2.088;2024-03-06T12:23:31;4.03;;;2.60;;
17079;SDS011;8655;57.106;-2.088;2024-03-06T12:26:04;6.00;;;2.80;;
17079;SDS011;8655;57.106;-2.088;2024-03-06T12:28:31;6.07;;;3.07;;
17079;SDS011;8655;57.106;-2.088;2024-03-06T12:30:57;6.53;;;3.10;;
17079;SDS011;8655;57.106;-2.088;2024-03-06T12:33:26;4.77;;;2.80;;
17079;SDS011;8655;57.106;-2.088;2024-03-06T12:36:07;6.20;;;2.70;;
17079;SDS011;8655;57.106;-2.088;2024-03-06T12:38:35;6.13;;;3.43;;
17079;SDS011;8655;57.106;-2.088;2024-03-06T12:41:02;6.37;;;3.37;;
17079;SDS011;8655;57.106;-2.088;2024-03-06T12:43:29;4.97;;;2.90;;
17079;SDS011;8655;57.106;-2.088;2024-03-06T12:45:55;4.80;;;2.80;;
17079;SDS011;8655;57.106;-2.088;2024-03-06T12:48:22;4.53;;;2.90;;
17079;SDS011;8655;57.106;-2.088;2024-03-06T12:50:48;6.67;;;3.13;;
17079;SDS011;8655;57.106;-2.088;2024-03-06T12:53:19;5.03;;;2.70;;
17079;SDS011;8655;57.106;-2.088;2024-03-06T12:55:45;4.70;;;2.92;;
17079;SDS011;8655;57.106;-2.088;2024-03-06T12:58:14;5.13;;;3.17;;
17079;SDS011;8655;57.106;-2.088;2024-03-06T13:00:40;5.00;;;3.00;;
17079;SDS011;8655;57.106;-2.088;2024-03-06T13:03:06;3.90;;;2.77;;
17079;SDS011;8655;57.106;-2.088;2024-03-06T13:05:32;4.20;;;2.80;;
17079;SDS011;8655;57.106;-2.088;2024-03-06T13:07:58;4.60;;;2.87;;
17079;SDS011;8655;57.106;-2.088;2024-03-06T13:10:26;5.63;;;3.00;;
17079;SDS011;8655;57.106;-2.088;2024-03-06T13:12:53;5.03;;;3.13;;
17079;SDS011;8655;57.106;-2.088;2024-03-06T13:15:18;5.20;;;3.07;;
17079;SDS011;8655;57.106;-2.088;2024-03-06T13:17:44;5.57;;;3.23;;
17079;SDS011;8655;57.106;-2.088;2024-03-06T13:20:10;5.90;;;3.20;;
17079;SDS011;8655;57.106;-2.088;2024-03-06T13:22:38;6.17;;;2.83;;
17079;SDS011;8655;57.106;-2.088;2024-03-06T13:25:04;5.47;;;2.80;;
17079;SDS011;8655;57.106;-2.088;2024-03-06T13:27:31;5.18;;;3.00;;
17079;SDS011;8655;57.106;-2.088;2024-03-06T13:29:57;4.73;;;2.73;;
17079;SDS011;8655;57.106;-2.088;2024-03-06T13:32:23;4.23;;;2.50;;
17079;SDS011;8655;57.106;-2.088;2024-03-06T13:34:49;5.80;;;3.20;;
17079;SDS011;8655;57.106;-2.088;2024-03-06T13:37:15;5.07;;;3.13;;
17079;SDS011;8655;57.106;-2.088;2024-03-06T13:39:41;4.17;;;2.90;;
17079;SDS011;8655;57.106;-2.088;2024-03-06T13:42:07;4.40;;;2.90;;
17079;SDS011;8655;57.106;-2.088;2024-03-06T13:44:34;4.17;;;2.70;;
17079;SDS011;8655;57.106;-2.088;2024-03-06T13:47:00;3.80;;;2.80;;
17079;SDS011;8655;57.106;-2.088;2024-03-06T13:49:37;5.97;;;3.07;;
17079;SDS011;8655;57.106;-2.088;2024-03-06T13:52:04;6.67;;;3.27;;
17079;SDS011;8655;57.106;-2.088;2024-03-06T13:54:32;5.30;;;3.17;;
17079;SDS011;8655;57.106;-2.088;2024-03-06T13:56:58;4.33;;;2.90;;
17079;SDS011;8655;57.106;-2.088;2024-03-06T13:59:30;5.40;;;3.28;;
17079;SDS011;8655;57.106;-2.088;2024-03-06T14:01:56;4.83;;;2.70;;
17079;SDS011;8655;57.106;-2.088;2024-03-06T14:04:22;4.97;;;2.90;;
17079;SDS011;8655;57.106;-2.088;2024-03-06T14:06:49;5.93;;;2.87;;
17079;SDS011;8655;57.106;-2.088;2024-03-06T14:09:15;3.30;;;2.47;;
17079;SDS011;8655;57.106;-2.088;2024-03-06T14:11:40;6.27;;;2.73;;
17079;SDS011;8655;57.106;-2.088;2024-03-06T14:14:06;4.20;;;2.57;;
17079;SDS011;8655;57.106;-2.088;2024-03-06T14:16:33;5.20;;;3.10;;
17079;SDS011;8655;57.106;-2.088;2024-03-06T14:18:59;4.10;;;2.53;;
17079;SDS011;8655;57.106;-2.088;2024-03-06T14:21:25;4.30;;;2.97;;
17079;SDS011;8655;57.106;-2.088;2024-03-06T14:23:51;5.00;;;2.70;;
17079;SDS011;8655;57.106;-2.088;2024-03-06T14:26:17;4.50;;;2.63;;
17079;SDS011;8655;57.106;-2.088;2024-03-06T14:28:42;4.30;;;2.80;;
17079;SDS011;8655;57.106;-2.088;2024-03-06T14:31:08;5.40;;;2.87;;
17079;SDS011;8655;57.106;-2.088;2024-03-06T14:33:38;6.13;;;3.03;;
17079;SDS011;8655;57.106;-2.088;2024-03-06T14:36:05;5.03;;;3.20;;
17079;SDS011;8655;57.106;-2.088;2024-03-06T14:38:31;4.13;;;2.83;;
17079;SDS011;8655;57.106;-2.088;2024-03-06T14:40:57;5.57;;;3.07;;
17079;SDS011;8655;57.106;-2.088;2024-03-06T14:43:24;5.20;;;3.17;;
17079;SDS011;8655;57.106;-2.088;2024-03-06T14:45:50;6.43;;;3.00;;
17079;SDS011;8655;57.106;-2.088;2024-03-06T14:48:16;5.67;;;3.20;;
17079;SDS011;8655;57.106;-2.088;2024-03-06T14:50:41;4.90;;;2.73;;
17079;SDS011;8655;57.106;-2.088;2024-03-06T14:53:08;4.83;;;3.10;;
17079;SDS011;8655;57.106;-2.088;2024-03-06T14:55:34;5.80;;;2.87;;